Time;durP1;ratioP1;P1;durP2;ratioP2;P2;SDS_P1;SDS_P2;PMS_P1;PMS_P2;Temp;Humidity;BMP_temperature;BMP_pressure;BME280_temperature;BME280_humidity;BME280_pressure;Samples;Min_cycle;Max_cycle;Signal;HPM_P1;HPM_P2
2024/03/16 00:01:07;;;;;;;17.13;13.02;;;11.90;99.90;;;;;;5053291;28;20196;-72
2024/03/16 00:03:34;;;;;;;19.77;11.32;;;11.80;99.90;;;;;;5052559;28;20216;-73
2024/03/16 00:06:01;;;;;;;17.85;11.00;;;11.90;99.90;;;;;;5044558;28;20219;-71
2024/03/16 00:08:28;;;;;;;13.07;10.75;;;11.80;99.90;;;;;;5050954;28;20269;-73
2024/03/16 00:10:56;;;;;;;22.52;13.02;;;11.80;99.90;;;;;;5045560;28;20235;-70
2024/03/16 00:13:23;;;;;;;19.45;11.32;;;11.80;99.90;;;;;;5050527;28;20241;-72
2024/03/16 00:15:50;;;;;;;15.38;11.63;;;11.90;99.90;;;;;;5051627;28;20223;-73
2024/03/16 00:18:17;;;;;;;16.30;11.48;;;11.80;99.90;;;;;;5045277;28;20200;-73
2024/03/16 00:20:44;;;;;;;20.35;11.52;;;11.90;99.90;;;;;;5052792;28;20212;-71
2024/03/16 00:23:11;;;;;;;19.02;12.10;;;11.90;99.90;;;;;;5052481;28;20658;-72
2024/03/16 00:25:39;;;;;;;15.57;10.75;;;12.00;99.90;;;;;;5052543;28;20259;-73
2024/03/16 00:28:07;;;;;;;15.38;11.80;;;12.00;99.90;;;;;;5047993;28;20719;-72
2024/03/16 00:30:34;;;;;;;18.13;11.88;;;12.00;99.90;;;;;;5048848;28;20208;-71
2024/03/16 00:33:01;;;;;;;17.23;10.90;;;12.00;99.90;;;;;;5040962;28;20201;-73
2024/03/16 00:35:28;;;;;;;16.40;11.43;;;12.00;99.90;;;;;;5025376;28;20224;-70
2024/03/16 00:37:55;;;;;;;16.42;9.80;;;12.10;99.90;;;;;;5051713;28;20204;-73
2024/03/16 00:40:22;;;;;;;20.27;9.70;;;12.10;99.90;;;;;;5044476;28;20257;-73
2024/03/16 00:42:49;;;;;;;20.65;10.30;;;12.10;99.90;;;;;;5055049;28;20200;-73
2024/03/16 00:45:17;;;;;;;17.98;9.82;;;12.20;99.90;;;;;;5053931;28;20228;-72
2024/03/16 00:47:44;;;;;;;15.25;9.43;;;12.20;99.90;;;;;;5047275;28;20204;-73
2024/03/16 00:50:11;;;;;;;21.17;10.93;;;12.20;99.90;;;;;;5049591;28;20666;-73
2024/03/16 00:52:38;;;;;;;16.75;9.50;;;12.20;99.90;;;;;;5049153;28;20205;-73
2024/03/16 00:55:06;;;;;;;13.77;9.80;;;12.20;99.90;;;;;;5031257;28;20242;-73
2024/03/16 00:57:38;;;;;;;23.52;10.90;;;12.20;99.90;;;;;;5015041;28;20196;-71
2024/03/16 01:00:08;;;;;;;17.75;8.23;;;12.20;99.90;;;;;;5035078;28;20204;-72
2024/03/16 01:02:35;;;;;;;15.43;10.23;;;12.30;99.90;;;;;;5049394;28;20578;-73
2024/03/16 01:05:03;;;;;;;15.02;10.35;;;12.30;99.90;;;;;;5031053;28;20296;-72
2024/03/16 01:07:30;;;;;;;19.38;9.98;;;12.30;99.90;;;;;;5050008;28;20219;-72
2024/03/16 01:09:57;;;;;;;20.15;9.27;;;12.30;99.90;;;;;;5049147;28;20234;-74
2024/03/16 01:12:24;;;;;;;18.98;9.73;;;12.40;99.90;;;;;;5026108;28;20343;-73
2024/03/16 01:14:51;;;;;;;17.45;8.32;;;12.30;99.90;;;;;;5050629;28;20196;-71
2024/03/16 01:17:20;;;;;;;18.33;9.60;;;12.30;99.90;;;;;;5058811;28;20246;-71
2024/03/16 01:19:47;;;;;;;27.13;10.80;;;12.20;99.90;;;;;;5055544;28;20606;-72
2024/03/16 01:22:14;;;;;;;26.38;10.38;;;12.20;99.90;;;;;;5045212;28;20224;-71
2024/03/16 01:24:42;;;;;;;21.05;8.88;;;12.30;99.90;;;;;;5051636;28;20204;-71
2024/03/16 01:27:09;;;;;;;21.08;11.40;;;12.20;99.90;;;;;;5050364;28;20224;-73
2024/03/16 01:29:36;;;;;;;22.20;9.23;;;12.30;99.90;;;;;;5050968;28;20204;-70
2024/03/16 01:32:05;;;;;;;17.90;9.93;;;12.20;99.90;;;;;;5048653;28;20204;-72
2024/03/16 01:34:32;;;;;;;16.67;9.90;;;12.20;99.90;;;;;;5051477;28;20206;-73
2024/03/16 01:37:00;;;;;;;24.13;9.98;;;12.20;99.90;;;;;;5051601;28;20221;-72
2024/03/16 01:39:27;;;;;;;13.90;8.95;;;12.20;99.90;;;;;;5047911;28;20207;-74
2024/03/16 01:41:54;;;;;;;18.10;9.88;;;12.20;99.90;;;;;;5051659;28;20236;-72
2024/03/16 01:44:21;;;;;;;19.23;9.57;;;12.20;99.90;;;;;;5050583;28;20269;-72
2024/03/16 01:46:48;;;;;;;20.90;9.30;;;12.20;99.90;;;;;;5013651;28;20246;-71
2024/03/16 01:49:15;;;;;;;16.77;9.65;;;12.20;99.90;;;;;;5049899;28;20204;-72
2024/03/16 01:51:42;;;;;;;20.35;9.48;;;12.20;99.90;;;;;;5037958;28;20235;-70
2024/03/16 01:54:10;;;;;;;26.33;9.35;;;12.20;99.90;;;;;;5029497;28;20236;-74
2024/03/16 01:56:37;;;;;;;18.08;8.75;;;12.20;99.90;;;;;;5016232;28;20228;-72
2024/03/16 01:59:04;;;;;;;17.77;9.70;;;12.20;99.90;;;;;;5046547;28;20220;-72
2024/03/16 02:01:31;;;;;;;21.02;9.65;;;12.20;99.90;;;;;;5040957;28;20598;-72
2024/03/16 02:03:58;;;;;;;15.20;9.18;;;12.20;99.90;;;;;;5051308;28;20287;-72
2024/03/16 02:06:26;;;;;;;15.80;9.15;;;12.20;99.90;;;;;;5050555;28;20232;-71
2024/03/16 02:08:53;;;;;;;16.88;8.65;;;12.20;99.90;;;;;;5050429;28;20311;-73
2024/03/16 02:11:21;;;;;;;17.67;9.95;;;12.20;99.90;;;;;;5044530;28;20204;-73
2024/03/16 02:13:48;;;;;;;14.02;9.13;;;12.20;99.90;;;;;;5046915;28;20201;-74
2024/03/16 02:16:15;;;;;;;12.27;9.15;;;12.20;99.90;;;;;;5041857;28;20224;-72
2024/03/16 02:18:42;;;;;;;21.25;8.93;;;12.10;99.90;;;;;;5049778;28;20550;-73
2024/03/16 02:21:10;;;;;;;19.52;9.40;;;12.20;99.90;;;;;;5046004;28;20216;-74
2024/03/16 02:23:39;;;;;;;17.25;8.40;;;12.20;99.90;;;;;;5048055;28;20287;-72
2024/03/16 02:26:07;;;;;;;16.42;8.95;;;12.20;99.90;;;;;;5050871;28;20235;-74
2024/03/16 02:28:34;;;;;;;22.15;9.90;;;12.30;99.90;;;;;;5041891;28;20224;-75
2024/03/16 02:31:01;;;;;;;12.98;8.20;;;12.20;99.90;;;;;;5048794;28;20196;-75
2024/03/16 02:33:28;;;;;;;14.40;8.05;;;12.30;99.90;;;;;;5045061;28;20257;-72
2024/03/16 02:35:57;;;;;;;19.80;8.50;;;12.20;99.90;;;;;;5047744;28;20256;-73
2024/03/16 02:38:24;;;;;;;20.13;8.38;;;12.30;99.90;;;;;;5041811;28;20606;-73
2024/03/16 02:40:52;;;;;;;13.40;8.13;;;12.30;99.90;;;;;;5017665;28;20242;-71
2024/03/16 02:43:19;;;;;;;13.68;7.88;;;12.20;99.90;;;;;;5050467;28;20297;-73
2024/03/16 02:45:47;;;;;;;21.25;7.70;;;12.20;99.90;;;;;;5044228;28;20304;-73
2024/03/16 02:48:14;;;;;;;18.65;8.30;;;12.20;99.90;;;;;;5029690;28;20669;-73
2024/03/16 02:50:41;;;;;;;16.98;7.63;;;12.20;99.90;;;;;;5012216;28;20227;-71
2024/03/16 02:53:09;;;;;;;16.08;9.00;;;12.30;99.90;;;;;;5029259;28;20235;-73
2024/03/16 02:55:36;;;;;;;16.42;7.32;;;12.20;99.90;;;;;;5049443;28;20665;-74
2024/03/16 02:58:04;;;;;;;16.50;8.18;;;12.30;99.90;;;;;;5049638;28;20192;-73
2024/03/16 03:00:31;;;;;;;20.10;7.75;;;12.20;99.90;;;;;;5048466;28;20231;-74
2024/03/16 03:02:58;;;;;;;18.67;7.32;;;12.20;99.90;;;;;;5029906;28;20254;-71
2024/03/16 03:05:25;;;;;;;13.32;7.22;;;12.20;99.90;;;;;;5051600;28;20227;-73
2024/03/16 03:07:53;;;;;;;21.92;7.97;;;12.20;99.90;;;;;;5043388;28;20281;-75
2024/03/16 03:10:21;;;;;;;18.27;7.03;;;12.20;99.90;;;;;;5023938;28;20743;-73
2024/03/16 03:12:49;;;;;;;19.20;8.32;;;12.20;99.90;;;;;;5040768;28;20211;-72
2024/03/16 03:15:16;;;;;;;17.33;7.32;;;12.10;99.90;;;;;;5042835;28;20225;-72
2024/03/16 03:17:44;;;;;;;25.10;9.27;;;12.20;99.90;;;;;;5033083;28;20203;-74
2024/03/16 03:20:11;;;;;;;17.35;6.97;;;12.20;99.90;;;;;;5013620;28;20244;-73
2024/03/16 03:22:38;;;;;;;23.40;8.60;;;12.10;99.90;;;;;;5039133;28;20220;-73
2024/03/16 03:25:07;;;;;;;18.35;7.78;;;12.10;99.90;;;;;;5047229;28;20220;-74
2024/03/16 03:27:34;;;;;;;17.15;7.05;;;12.10;99.90;;;;;;5033108;28;20219;-72
2024/03/16 03:30:01;;;;;;;16.50;6.32;;;12.00;99.90;;;;;;5044043;28;20247;-73
2024/03/16 03:32:29;;;;;;;17.75;7.00;;;12.00;99.90;;;;;;5045903;28;20204;-73
2024/03/16 03:34:56;;;;;;;17.35;6.70;;;12.00;99.90;;;;;;5050361;28;20270;-72
2024/03/16 03:37:25;;;;;;;17.23;7.93;;;12.00;99.90;;;;;;5049228;28;20208;-72
2024/03/16 03:39:53;;;;;;;20.13;7.40;;;12.10;99.90;;;;;;5041193;28;20200;-72
2024/03/16 03:42:24;;;;;;;13.35;6.53;;;12.00;99.90;;;;;;5048403;28;20283;-73
2024/03/16 03:45:00;;;;;;;12.75;7.40;;;12.00;99.90;;;;;;5054421;28;20677;-75
2024/03/16 03:47:40;;;;;;;16.52;6.43;;;12.00;99.90;;;;;;5037507;28;20204;-74
2024/03/16 03:50:09;;;;;;;18.63;6.30;;;11.90;99.90;;;;;;5053291;28;20670;-71
2024/03/16 03:52:38;;;;;;;17.25;7.57;;;11.90;99.90;;;;;;5023139;28;20208;-75
2024/03/16 03:55:05;;;;;;;20.98;8.57;;;11.90;99.90;;;;;;5037056;28;20311;-72
2024/03/16 03:57:33;;;;;;;11.98;6.60;;;11.90;99.90;;;;;;5023727;28;20204;-74
2024/03/16 04:00:00;;;;;;;26.42;7.40;;;11.80;99.90;;;;;;5052485;28;20283;-73
2024/03/16 04:02:27;;;;;;;16.67;6.07;;;11.80;99.90;;;;;;5053562;28;20565;-72
2024/03/16 04:04:54;;;;;;;18.35;7.68;;;11.70;99.90;;;;;;5053180;28;20281;-72
2024/03/16 04:07:21;;;;;;;14.63;6.57;;;11.70;99.90;;;;;;5036619;28;20239;-74
2024/03/16 04:09:49;;;;;;;23.05;7.13;;;11.70;99.90;;;;;;5053263;28;20223;-73
2024/03/16 04:12:16;;;;;;;21.90;7.50;;;11.70;99.90;;;;;;5053670;28;20222;-72
2024/03/16 04:14:43;;;;;;;20.92;8.32;;;11.60;99.90;;;;;;5037308;28;20232;-72
2024/03/16 04:17:10;;;;;;;29.15;8.77;;;11.60;99.90;;;;;;5045868;28;20216;-72
2024/03/16 04:19:37;;;;;;;21.05;8.15;;;11.60;99.90;;;;;;5053790;28;20743;-71
2024/03/16 04:22:06;;;;;;;16.58;7.63;;;11.60;99.90;;;;;;5039599;28;20240;-73
2024/03/16 04:24:33;;;;;;;26.48;9.90;;;11.50;99.90;;;;;;5051873;28;20279;-72
2024/03/16 04:27:00;;;;;;;16.90;7.60;;;11.50;99.90;;;;;;5049622;28;20274;-72
2024/03/16 04:29:27;;;;;;;20.45;9.30;;;11.50;99.90;;;;;;5048715;28;20725;-70
2024/03/16 04:31:54;;;;;;;20.63;9.85;;;11.40;99.90;;;;;;5051930;28;20197;-72
2024/03/16 04:34:25;;;;;;;23.10;10.55;;;11.40;99.90;;;;;;5034081;28;20228;-74
2024/03/16 04:36:52;;;;;;;27.75;12.48;;;11.40;99.90;;;;;;5045255;28;20224;-73
2024/03/16 04:39:21;;;;;;;21.90;10.73;;;11.40;99.90;;;;;;5051494;28;20287;-72
2024/03/16 04:41:48;;;;;;;23.02;10.20;;;11.40;99.90;;;;;;5046208;28;20258;-72
2024/03/16 04:44:15;;;;;;;22.45;11.57;;;11.40;99.90;;;;;;5013023;28;20687;-73
2024/03/16 04:46:42;;;;;;;37.55;12.88;;;11.30;99.90;;;;;;5019954;28;20259;-73
2024/03/16 04:49:09;;;;;;;26.83;13.90;;;11.30;99.90;;;;;;5049660;28;20702;-72
2024/03/16 04:51:36;;;;;;;18.10;11.20;;;11.30;99.90;;;;;;5052507;28;20736;-71
2024/03/16 04:54:03;;;;;;;21.10;11.98;;;11.30;99.90;;;;;;5050478;28;20562;-72
2024/03/16 04:56:31;;;;;;;24.95;12.60;;;11.30;99.90;;;;;;5052105;28;20254;-71
2024/03/16 04:58:58;;;;;;;25.83;11.85;;;11.40;99.90;;;;;;5052348;28;20675;-71
2024/03/16 05:01:26;;;;;;;35.83;13.43;;;11.40;99.90;;;;;;5013251;28;20224;-71
2024/03/16 05:03:53;;;;;;;22.27;10.88;;;11.40;99.90;;;;;;5041730;28;20630;-72
2024/03/16 05:06:20;;;;;;;18.83;10.45;;;11.50;99.90;;;;;;5043386;28;20270;-71
2024/03/16 05:08:47;;;;;;;17.00;9.95;;;11.50;99.90;;;;;;5038440;28;20208;-71
2024/03/16 05:11:14;;;;;;;14.48;7.30;;;11.40;99.90;;;;;;5011592;28;20252;-70
2024/03/16 05:13:41;;;;;;;8.70;5.70;;;11.40;99.90;;;;;;5045405;28;20217;-71
2024/03/16 05:16:08;;;;;;;11.10;6.50;;;11.20;99.90;;;;;;5051839;28;20228;-73
2024/03/16 05:18:35;;;;;;;10.60;6.20;;;11.10;99.90;;;;;;5033945;28;20197;-72
2024/03/16 05:21:03;;;;;;;6.18;5.10;;;11.00;99.90;;;;;;5014026;28;20300;-74
2024/03/16 05:23:30;;;;;;;7.80;5.97;;;10.80;99.90;;;;;;5044160;28;20305;-72
2024/03/16 05:25:59;;;;;;;6.78;4.85;;;10.80;99.90;;;;;;5046786;28;20227;-72
2024/03/16 05:28:26;;;;;;;4.20;3.80;;;10.70;99.90;;;;;;5046130;28;20563;-71
2024/03/16 05:30:53;;;;;;;11.90;3.72;;;10.70;99.90;;;;;;5042892;28;20617;-72
2024/03/16 05:33:20;;;;;;;3.38;3.03;;;10.60;99.90;;;;;;5048575;28;20291;-72
2024/03/16 05:35:47;;;;;;;3.05;2.67;;;10.40;99.90;;;;;;5037917;28;20770;-74
2024/03/16 05:38:15;;;;;;;3.80;2.65;;;10.30;99.90;;;;;;5047746;28;20208;-71
2024/03/16 05:40:43;;;;;;;4.63;4.10;;;10.30;99.90;;;;;;5045426;28;20204;-73
2024/03/16 05:43:10;;;;;;;5.95;2.95;;;10.20;99.90;;;;;;5048190;28;20207;-71
2024/03/16 05:45:37;;;;;;;4.43;2.85;;;10.20;99.90;;;;;;5027523;28;20277;-70
2024/03/16 05:48:05;;;;;;;5.18;3.13;;;10.10;99.90;;;;;;5043885;28;20226;-73
2024/03/16 05:50:33;;;;;;;9.57;5.60;;;10.10;99.90;;;;;;5051216;28;20224;-71
2024/03/16 05:53:01;;;;;;;3.92;3.47;;;10.10;99.90;;;;;;5050645;28;20208;-74
2024/03/16 05:55:28;;;;;;;4.32;2.95;;;10.20;99.90;;;;;;5050680;28;20233;-73
2024/03/16 05:57:55;;;;;;;3.42;2.90;;;10.20;99.90;;;;;;5045271;28;20204;-72
2024/03/16 06:00:22;;;;;;;7.72;3.40;;;10.20;99.90;;;;;;5047695;28;20258;-72
2024/03/16 06:02:50;;;;;;;6.50;4.40;;;10.20;99.90;;;;;;5036913;28;20205;-72
2024/03/16 06:05:18;;;;;;;8.30;3.80;;;10.20;99.90;;;;;;5050922;28;20225;-72
2024/03/16 06:07:45;;;;;;;7.70;3.55;;;10.20;99.90;;;;;;5048980;28;20264;-71
2024/03/16 06:10:12;;;;;;;3.85;3.33;;;10.10;99.90;;;;;;5023783;28;20229;-70
2024/03/16 06:12:39;;;;;;;6.30;2.80;;;10.10;99.90;;;;;;5034224;28;20212;-72
2024/03/16 06:15:06;;;;;;;4.70;2.70;;;10.10;99.90;;;;;;5015162;28;20256;-72
2024/03/16 06:17:34;;;;;;;5.38;3.05;;;10.10;99.90;;;;;;5042859;28;20201;-71
2024/03/16 06:20:03;;;;;;;9.15;4.43;;;10.10;99.90;;;;;;5033134;28;20287;-71
2024/03/16 06:22:30;;;;;;;6.15;2.92;;;10.00;99.90;;;;;;5011923;28;20235;-72
2024/03/16 06:24:57;;;;;;;3.05;2.13;;;9.90;99.90;;;;;;5046826;28;20227;-72
2024/03/16 06:27:25;;;;;;;7.05;1.70;;;9.80;99.90;;;;;;5025005;28;20192;-73
2024/03/16 06:29:53;;;;;;;3.75;1.90;;;9.70;99.90;;;;;;5037914;28;20223;-76
2024/03/16 06:32:21;;;;;;;9.63;2.90;;;9.70;99.90;;;;;;5046235;28;20204;-71
2024/03/16 06:34:48;;;;;;;6.72;2.55;;;9.70;99.90;;;;;;5034044;28;20207;-72
2024/03/16 06:37:15;;;;;;;10.00;2.97;;;9.60;99.90;;;;;;5050697;28;20279;-72
2024/03/16 06:39:42;;;;;;;11.80;2.70;;;9.50;99.90;;;;;;5048867;28;20251;-72
2024/03/16 06:42:10;;;;;;;17.33;4.38;;;9.50;99.90;;;;;;5050261;28;20282;-71
2024/03/16 06:44:37;;;;;;;9.50;2.85;;;9.40;99.90;;;;;;5044894;28;20209;-71
2024/03/16 06:47:05;;;;;;;7.80;3.08;;;9.30;99.90;;;;;;5043572;28;20223;-72
2024/03/16 06:49:32;;;;;;;7.80;2.60;;;9.40;99.90;;;;;;5016247;28;20324;-73
2024/03/16 06:51:59;;;;;;;5.82;2.28;;;9.40;99.90;;;;;;5048369;28;20253;-69
2024/03/16 06:54:26;;;;;;;8.18;4.07;;;9.20;99.90;;;;;;5047690;28;20208;-70
2024/03/16 06:56:53;;;;;;;8.50;3.20;;;9.20;99.90;;;;;;5050522;28;20564;-72
2024/03/16 06:59:20;;;;;;;8.15;3.53;;;9.30;99.90;;;;;;5040789;28;20208;-72
2024/03/16 07:01:47;;;;;;;7.35;4.25;;;9.30;99.90;;;;;;5030096;28;20246;-72
2024/03/16 07:04:15;;;;;;;10.52;3.20;;;9.40;99.90;;;;;;5046852;28;20690;-73
2024/03/16 07:06:42;;;;;;;8.63;2.75;;;9.30;99.90;;;;;;5016958;28;20230;-73
2024/03/16 07:09:11;;;;;;;13.07;3.28;;;9.30;99.90;;;;;;5048744;28;20306;-71
2024/03/16 07:11:38;;;;;;;10.75;4.57;;;9.30;99.90;;;;;;5042244;28;20223;-73
2024/03/16 07:14:05;;;;;;;8.52;3.22;;;9.30;99.90;;;;;;5047945;28;20232;-73
2024/03/16 07:16:32;;;;;;;9.25;3.35;;;9.20;99.90;;;;;;5049490;28;20702;-73
2024/03/16 07:18:59;;;;;;;9.82;3.25;;;9.30;99.90;;;;;;5044085;28;20553;-73
2024/03/16 07:21:26;;;;;;;11.52;4.07;;;9.30;99.90;;;;;;5052758;28;20244;-76
2024/03/16 07:23:53;;;;;;;10.88;2.90;;;9.30;99.90;;;;;;5050059;28;20223;-72
2024/03/16 07:26:20;;;;;;;19.80;4.30;;;9.30;99.90;;;;;;5018682;28;20729;-71
2024/03/16 07:28:48;;;;;;;20.15;4.10;;;9.30;99.90;;;;;;5012796;28;20199;-73
2024/03/16 07:31:15;;;;;;;19.67;3.33;;;9.20;99.90;;;;;;5039931;28;20252;-74
2024/03/16 07:33:42;;;;;;;16.33;4.40;;;9.00;99.90;;;;;;5049377;28;20236;-75
2024/03/16 07:36:10;;;;;;;7.95;2.53;;;9.10;99.90;;;;;;5053596;28;20263;-72
2024/03/16 07:38:37;;;;;;;18.75;4.30;;;9.10;99.90;;;;;;5035818;28;20246;-71
2024/03/16 07:41:04;;;;;;;9.70;2.85;;;9.10;99.90;;;;;;5052172;28;20514;-75
2024/03/16 07:43:31;;;;;;;7.55;3.15;;;9.30;99.90;;;;;;5035731;28;20204;-72
2024/03/16 07:45:58;;;;;;;13.93;3.42;;;9.30;99.90;;;;;;5017887;28;20224;-73
2024/03/16 07:48:26;;;;;;;20.90;4.30;;;9.30;99.90;;;;;;5037158;28;20623;-73
2024/03/16 07:50:59;;;;;;;14.45;3.40;;;9.60;99.90;;;;;;5051715;28;20215;-72
2024/03/16 07:53:27;;;;;;;9.48;2.90;;;9.80;99.90;;;;;;5054031;28;20291;-74
2024/03/16 07:55:56;;;;;;;21.88;3.35;;;9.90;99.90;;;;;;5045367;28;20219;-75
2024/03/16 07:58:23;;;;;;;15.73;3.40;;;10.00;99.90;;;;;;5052353;28;20204;-72
2024/03/16 08:00:50;;;;;;;7.60;3.30;;;10.20;99.90;;;;;;5054119;28;20196;-75
2024/03/16 08:03:17;;;;;;;13.05;4.00;;;10.20;99.90;;;;;;5032372;28;20291;-74
2024/03/16 08:05:46;;;;;;;7.57;3.80;;;10.20;99.90;;;;;;5044509;28;20618;-74
2024/03/16 08:08:13;;;;;;;11.63;2.75;;;10.30;99.90;;;;;;5054773;28;20200;-72
2024/03/16 08:10:44;;;;;;;10.57;2.30;;;10.20;99.90;;;;;;5045305;28;20307;-74
2024/03/16 08:13:11;;;;;;;11.18;2.97;;;10.20;99.90;;;;;;5070584;28;20205;-76
2024/03/16 08:15:39;;;;;;;13.50;3.05;;;10.10;99.90;;;;;;5018656;28;20238;-74
2024/03/16 08:18:06;;;;;;;7.60;2.40;;;10.00;99.90;;;;;;5054043;28;20257;-74
2024/03/16 08:20:33;;;;;;;9.73;5.20;;;9.80;99.90;;;;;;5048492;28;20208;-75
2024/03/16 08:23:00;;;;;;;9.40;2.58;;;9.70;99.90;;;;;;5046668;28;20292;-76
2024/03/16 08:25:29;;;;;;;6.10;3.17;;;9.60;99.90;;;;;;5052037;28;20660;-73
2024/03/16 08:27:57;;;;;;;6.15;2.47;;;9.50;99.90;;;;;;5030188;28;20565;-75
2024/03/16 08:30:25;;;;;;;7.68;2.90;;;9.60;99.90;;;;;;5052234;28;20622;-75
2024/03/16 08:32:52;;;;;;;5.35;2.80;;;9.60;99.90;;;;;;5053015;28;20209;-77
2024/03/16 08:35:19;;;;;;;4.55;2.45;;;9.70;99.90;;;;;;5052057;28;20278;-74
2024/03/16 08:37:46;;;;;;;7.88;2.45;;;9.80;99.90;;;;;;5047127;28;20581;-73
2024/03/16 08:40:15;;;;;;;10.10;3.10;;;9.90;99.90;;;;;;5028687;28;20203;-73
2024/03/16 08:42:43;;;;;;;8.43;3.00;;;9.90;99.90;;;;;;5035525;28;20540;-75
2024/03/16 08:45:11;;;;;;;10.85;4.05;;;9.90;99.90;;;;;;5052282;28;20255;-73
2024/03/16 08:47:41;;;;;;;7.45;3.47;;;9.90;99.90;;;;;;5044100;28;20645;-71
2024/03/16 08:50:09;;;;;;;10.85;3.85;;;9.90;99.90;;;;;;5053896;28;20224;-73
2024/03/16 08:52:36;;;;;;;10.20;3.20;;;9.80;99.90;;;;;;5051690;28;20208;-73
2024/03/16 08:55:04;;;;;;;8.82;3.35;;;9.90;99.90;;;;;;5052665;28;20239;-71
2024/03/16 08:57:31;;;;;;;7.55;2.40;;;9.90;99.90;;;;;;5051412;28;20615;-73
2024/03/16 08:59:58;;;;;;;10.70;3.65;;;9.90;99.90;;;;;;5052307;28;20553;-73
2024/03/16 09:02:25;;;;;;;7.43;3.92;;;9.80;99.90;;;;;;5052053;28;20208;-76
2024/03/16 09:04:52;;;;;;;15.52;3.92;;;9.90;99.90;;;;;;5036069;28;20211;-74
2024/03/16 09:07:20;;;;;;;12.07;3.03;;;9.90;99.90;;;;;;5052440;28;20199;-74
2024/03/16 09:09:47;;;;;;;8.07;3.25;;;10.00;99.90;;;;;;5051418;28;20274;-78
2024/03/16 09:12:14;;;;;;;12.57;4.05;;;10.20;99.90;;;;;;5034645;28;20756;-75
2024/03/16 09:14:41;;;;;;;12.65;4.30;;;10.30;99.90;;;;;;5021296;28;20370;-74
2024/03/16 09:17:08;;;;;;;14.45;3.67;;;10.20;99.90;;;;;;5050623;28;20252;-72
2024/03/16 09:19:36;;;;;;;9.88;3.90;;;10.20;99.90;;;;;;5021577;28;20739;-77
2024/03/16 09:22:03;;;;;;;8.60;2.22;;;10.20;99.90;;;;;;5052680;28;20207;-73
2024/03/16 09:24:30;;;;;;;8.45;2.47;;;10.30;99.90;;;;;;5033043;28;20204;-76
2024/03/16 09:26:58;;;;;;;8.07;2.90;;;10.60;99.90;;;;;;5051503;28;20687;-75
2024/03/16 09:29:25;;;;;;;9.45;2.47;;;10.80;99.90;;;;;;5048585;28;20207;-74
2024/03/16 09:31:55;;;;;;;5.88;2.40;;;11.00;99.90;;;;;;5022799;28;20274;-74
2024/03/16 09:34:23;;;;;;;8.20;2.45;;;11.20;99.90;;;;;;5034544;28;20258;-75
2024/03/16 09:36:50;;;;;;;4.93;2.20;;;11.50;99.90;;;;;;5051398;28;20263;-74
2024/03/16 09:39:18;;;;;;;8.52;2.85;;;11.60;99.90;;;;;;5046955;28;20200;-76
2024/03/16 09:45:16;;;;;;;7.88;2.05;;;11.90;99.90;;;;;;5066471;23;20227;-84
2024/03/16 09:47:44;;;;;;;8.63;2.40;;;11.90;99.90;;;;;;5058779;28;20608;-82
2024/03/16 09:50:28;;;;;;;5.28;1.73;;;11.90;99.90;;;;;;5059608;28;20247;-88
2024/03/16 09:52:55;;;;;;;5.80;2.22;;;11.70;99.90;;;;;;5071555;28;20701;-85
2024/03/16 09:55:23;;;;;;;7.93;1.77;;;11.60;99.90;;;;;;5083910;28;20199;-87
2024/03/16 09:57:51;;;;;;;6.28;1.77;;;11.50;99.90;;;;;;5080265;28;20232;-85
2024/03/16 10:00:18;;;;;;;5.60;2.05;;;11.40;99.90;;;;;;5092876;28;20200;-85
2024/03/16 10:02:48;;;;;;;4.40;2.13;;;11.40;99.90;;;;;;5073463;28;20206;-86
2024/03/16 10:05:18;;;;;;;9.27;3.78;;;11.30;99.90;;;;;;5071867;28;20199;-85
2024/03/16 10:07:45;;;;;;;4.63;2.33;;;11.20;99.90;;;;;;5096811;28;20211;-86
2024/03/16 10:10:16;;;;;;;8.00;3.22;;;11.10;99.90;;;;;;5079127;28;20211;-84
2024/03/16 10:12:44;;;;;;;17.73;2.85;;;11.00;99.90;;;;;;5077814;28;20196;-84
2024/03/16 10:15:16;;;;;;;5.45;2.80;;;10.90;99.90;;;;;;5079993;28;20202;-85
2024/03/16 10:17:43;;;;;;;11.85;2.97;;;10.80;99.90;;;;;;5086921;28;20236;-85
2024/03/16 10:20:15;;;;;;;9.68;2.92;;;10.60;99.90;;;;;;5069274;28;20221;-87
2024/03/16 10:22:44;;;;;;;7.53;3.17;;;10.70;99.90;;;;;;5073418;28;20195;-87
2024/03/16 10:25:11;;;;;;;12.05;3.67;;;10.80;99.90;;;;;;5077933;28;20590;-87
2024/03/16 10:27:39;;;;;;;5.40;2.25;;;10.90;99.90;;;;;;5089169;28;20213;-87
2024/03/16 10:30:11;;;;;;;6.90;1.92;;;11.00;99.90;;;;;;5078792;28;20229;-86
2024/03/16 10:32:38;;;;;;;5.72;2.72;;;11.10;99.90;;;;;;5092403;28;20226;-85
2024/03/16 10:35:09;;;;;;;2.70;1.58;;;11.80;99.90;;;;;;5066807;28;20211;-83
2024/03/16 10:37:38;;;;;;;5.30;2.30;;;12.30;99.90;;;;;;5087592;28;20216;-86
2024/03/16 10:40:13;;;;;;;3.85;1.92;;;12.70;99.90;;;;;;5073012;28;20234;-84
2024/03/16 10:42:43;;;;;;;6.40;2.20;;;13.10;99.90;;;;;;5086603;28;20206;-83
2024/03/16 10:45:13;;;;;;;5.03;1.85;;;13.50;99.90;;;;;;5078131;28;20199;-84
2024/03/16 10:47:42;;;;;;;3.97;1.70;;;14.00;99.90;;;;;;5068671;28;20249;-86
2024/03/16 10:50:10;;;;;;;8.27;1.80;;;14.10;99.90;;;;;;5096286;28;20246;-82
2024/03/16 10:52:40;;;;;;;4.25;1.42;;;13.80;99.90;;;;;;5080943;28;20230;-86
2024/03/16 10:55:10;;;;;;;8.02;1.60;;;13.80;99.90;;;;;;5084996;28;20192;-85
2024/03/16 10:57:37;;;;;;;2.80;1.75;;;13.40;99.90;;;;;;5096007;28;20230;-83
2024/03/16 11:00:12;;;;;;;4.70;1.50;;;13.10;99.90;;;;;;5075043;28;20215;-84
2024/03/16 11:02:48;;;;;;;2.75;1.20;;;12.60;99.90;;;;;;5079470;28;20202;-87
2024/03/16 11:05:35;;;;;;;2.47;2.08;;;12.20;99.90;;;;;;5095053;28;20195;-87
2024/03/16 11:08:03;;;;;;;5.95;2.70;;;11.90;99.90;;;;;;5083613;28;20302;-86
2024/03/16 11:10:39;;;;;;;4.85;2.25;;;11.70;99.90;;;;;;5068810;28;20252;-85
2024/03/16 11:13:16;;;;;;;5.88;1.65;;;11.80;99.90;;;;;;5067544;28;20633;-83
2024/03/16 11:15:44;;;;;;;6.10;1.67;;;12.20;99.90;;;;;;5071320;28;20200;-86
2024/03/16 11:18:53;;;;;;;5.18;2.20;;;12.40;99.90;;;;;;5089726;28;20349;-87
2024/03/16 11:21:26;;;;;;;6.80;2.05;;;12.30;99.90;;;;;;5077233;28;20799;-87
2024/03/16 11:23:53;;;;;;;6.35;2.50;;;12.30;99.90;;;;;;5084905;28;20299;-87
2024/03/16 11:26:34;;;;;;;6.45;2.97;;;12.40;99.90;;;;;;5071653;28;20203;-83
2024/03/16 11:29:05;;;;;;;7.18;3.13;;;12.70;99.90;;;;;;5061407;28;20250;-84
2024/03/16 11:31:36;;;;;;;8.70;2.75;;;12.90;99.90;;;;;;5087531;28;20227;-83
2024/03/16 11:34:04;;;;;;;7.80;2.08;;;12.80;99.90;;;;;;5066228;28;20563;-68
2024/03/16 11:36:32;;;;;;;4.57;2.75;;;12.60;99.90;;;;;;5060895;28;20207;-69
2024/03/16 11:38:58;;;;;;;5.72;2.15;;;12.60;99.90;;;;;;5059969;28;20219;-69
2024/03/16 11:41:25;;;;;;;5.75;2.55;;;12.70;99.90;;;;;;5073174;28;20202;-68
2024/03/16 11:43:52;;;;;;;8.02;2.70;;;12.90;99.90;;;;;;5083120;28;20204;-70
2024/03/16 11:46:19;;;;;;;5.80;1.50;;;13.10;99.90;;;;;;5064912;28;20222;-69
2024/03/16 11:48:45;;;;;;;10.65;2.08;;;13.10;99.90;;;;;;5081690;28;20584;-70
2024/03/16 11:51:12;;;;;;;4.32;1.65;;;13.20;99.90;;;;;;5064121;28;20227;-69
2024/03/16 11:53:39;;;;;;;7.60;2.60;;;13.20;99.90;;;;;;5066363;28;20582;-68
2024/03/16 11:56:08;;;;;;;3.63;2.22;;;13.30;99.90;;;;;;5083541;28;20199;-72
2024/03/16 11:58:34;;;;;;;12.68;4.63;;;13.00;99.90;;;;;;5084405;28;20306;-68
2024/03/16 12:01:01;;;;;;;8.50;2.70;;;12.60;99.90;;;;;;5080728;28;20200;-71
2024/03/16 12:03:27;;;;;;;5.53;2.00;;;12.40;99.90;;;;;;5079061;28;20298;-66
2024/03/16 12:05:55;;;;;;;10.50;2.85;;;12.40;99.90;;;;;;5086191;28;20214;-67
2024/03/16 12:08:21;;;;;;;13.88;2.20;;;12.60;99.90;;;;;;5080080;28;20219;-66
2024/03/16 12:10:48;;;;;;;6.30;1.95;;;12.60;99.90;;;;;;5078088;28;20223;-71
2024/03/16 12:13:14;;;;;;;11.18;2.25;;;12.60;99.80;;;;;;5077760;28;20570;-84
2024/03/16 12:15:42;;;;;;;6.93;2.30;;;12.50;99.70;;;;;;5073897;28;20207;-82
2024/03/16 12:18:09;;;;;;;10.13;3.97;;;12.50;99.90;;;;;;5065201;28;20721;-83
2024/03/16 12:20:37;;;;;;;9.25;3.25;;;12.60;99.90;;;;;;5074134;28;20199;-82
2024/03/16 12:23:03;;;;;;;8.35;2.40;;;12.70;99.50;;;;;;5088137;28;20200;-82
2024/03/16 12:25:31;;;;;;;5.47;1.83;;;12.60;99.10;;;;;;5080083;28;20188;-83
2024/03/16 12:28:02;;;;;;;11.07;2.83;;;12.30;99.00;;;;;;5083672;28;20223;-87
2024/03/16 12:30:29;;;;;;;8.68;2.45;;;12.20;99.30;;;;;;5078282;28;20247;-82
2024/03/16 12:32:57;;;;;;;6.60;2.47;;;12.30;98.50;;;;;;5074593;28;20188;-82
2024/03/16 12:35:27;;;;;;;5.13;2.00;;;12.10;98.90;;;;;;5091634;28;20231;-83
2024/03/16 12:37:53;;;;;;;9.00;2.03;;;12.20;98.30;;;;;;5079811;28;20238;-83
2024/03/16 12:40:20;;;;;;;6.63;2.50;;;12.40;98.30;;;;;;5080625;28;20271;-84
2024/03/16 12:42:46;;;;;;;9.95;2.83;;;12.50;97.70;;;;;;5078710;28;20434;-82
2024/03/16 12:45:13;;;;;;;6.97;2.38;;;12.80;97.30;;;;;;5079420;28;20229;-83
2024/03/16 12:47:39;;;;;;;4.00;1.63;;;12.90;96.00;;;;;;5075071;28;20219;-82
2024/03/16 12:50:08;;;;;;;9.70;2.30;;;13.10;96.00;;;;;;5077217;28;20210;-83